Maersk Lanco — VRLI7 — position and weather

sailwx.info

Track history (hours):
 
Tides and Currents Weather Stations Pressure Air Temp Water Temp Dewpoint Dewpoint Depression Visibility Wind Speed Wind Dir Waves Ship Positions

Maersk Lanco

Last reported at 2017-Nov-17 23:00 UTC. Time now 2017-Nov-17 23:14 UTC.
Position N 39°43' W 010°06'.

Length 300 m; draft 12 m.

Type: Ship. MMSI: 477182700.

Date/timePositionNaut miles runAvg speedWind from/ knotsBaromVisibWave heightAir tempDewpointWater temp
2017-Nov-17 23:00N 39°43' W 010°06'917.8
2017-Nov-17 22:30N 39°52' W 010°06'918.3
2017-Nov-17 22:01N 40°01' W 010°07'918.3
2017-Nov-17 21:30N 40°10' W 010°07'918.2
2017-Nov-17 21:00N 40°20' W 010°07'918.7
2017-Nov-17 20:30N 40°29' W 010°08'1018.8
2017-Nov-17 20:00N 40°38' W 010°08'918.9
2017-Nov-17 19:30N 40°48' W 010°08'2118.3
2017-Nov-17 18:20N 41°09' W 010°09'618.4
2017-Nov-17 18:00N 41°15' W 010°09'4918.1
2017-Nov-17 15:17N 42°04' W 010°08'518.2
2017-Nov-17 15:00N 42°09' W 010°09'24817.7
2017-Nov-17 01:00N 46°00' W 008°00'8218.6 060 / 151025.910.8 13.0 6.818.0
2017-Nov-16 20:34N 47°14' W 007°08'418.1
2017-Nov-16 20:20N 47°18' W 007°05'1118.5
2017-Nov-16 19:45N 47°27' W 006°57'519.0
2017-Nov-16 19:30N 47°32' W 006°54'1019.7
2017-Nov-16 19:00N 47°40' W 006°47'1519.6
2017-Nov-16 18:15N 47°53' W 006°36'619.3
2017-Nov-16 17:56N 47°58' W 006°32'819.1
2017-Nov-16 17:30N 48°05' W 006°26'1018.7
2017-Nov-16 16:59N 48°14' W 006°18'1418.3
2017-Nov-16 16:13N 48°26' W 006°08'418.2
2017-Nov-16 15:59N 48°30' W 006°05'1017.4
2017-Nov-16 15:25N 48°39' W 005°58'816.9
2017-Nov-16 14:58N 48°46' W 005°53'816.3
2017-Nov-16 14:29N 48°52' W 005°47'1515.8
2017-Nov-16 13:32N 49°02' W 005°29'715.6
2017-Nov-16 13:07N 49°05' W 005°21'315.8
2017-Nov-16 12:57N 49°06' W 005°17'816.0
2017-Nov-16 12:28N 49°10' W 005°07'816.4
2017-Nov-16 11:58N 49°14' W 004°56'1016.9
2017-Nov-16 11:21N 49°20' W 004°42'617.4
2017-Nov-16 11:00N 49°23' W 004°35'917.1
2017-Nov-16 10:27N 49°28' W 004°22'816.5
2017-Nov-16 10:00N 49°32' W 004°12'816.7
2017-Nov-16 09:30N 49°36' W 004°01'816.6
2017-Nov-16 09:00N 49°40' W 003°50'916.0
2017-Nov-16 08:26N 49°45' W 003°38'715.6
2017-Nov-16 08:00N 49°48' W 003°29'815.2
2017-Nov-16 07:30N 49°52' W 003°19'714.5
2017-Nov-16 07:00N 49°55' W 003°09'713.9
2017-Nov-16 06:30N 49°58' W 002°59'713.5
2017-Nov-16 06:00N 50°01' W 002°49'713.3
2017-Nov-16 05:30N 50°03' W 002°40'713.2
2017-Nov-16 05:00N 50°05' W 002°30'1313.3
2017-Nov-16 04:03N 50°08' W 002°11'114.1
2017-Nov-16 04:00N 50°08' W 002°10'714.2
2017-Nov-16 03:30N 50°10' W 001°59'815.1
2017-Nov-16 03:01N 50°12' W 001°48'816.2
2017-Nov-16 02:30N 50°14' W 001°35'816.8
2017-Nov-16 02:00N 50°16' W 001°23'917.2
2017-Nov-16 01:30N 50°18' W 001°10'918.2
2017-Nov-16 01:00N 50°20' W 000°56'1217.9
2017-Nov-16 00:20N 50°24' W 000°38'617.6
2017-Nov-16 00:00N 50°25' W 000°29'817.1
2017-Nov-15 23:30N 50°28' W 000°16'816.7
2017-Nov-15 23:00N 50°30' W 000°04'816.4
2017-Nov-15 22:30N 50°32' E 000°09'816.0
2017-Nov-15 22:00N 50°34' E 000°21'815.5
2017-Nov-15 21:30N 50°36' E 000°33'715.0
2017-Nov-15 21:00N 50°39' E 000°43'714.7
2017-Nov-15 20:30N 50°43' E 000°53'714.6
2017-Nov-15 20:00N 50°47' E 001°03'815.0
2017-Nov-15 19:30N 50°51' E 001°14'815.3
2017-Nov-15 19:00N 50°57' E 001°21'917.1
2017-Nov-15 18:30N 51°03' E 001°30'918.0
2017-Nov-15 18:00N 51°09' E 001°40'918.0
2017-Nov-15 17:30N 51°16' E 001°49'917.3
2017-Nov-15 17:00N 51°24' E 001°55'816.7
2017-Nov-15 16:30N 51°31' E 002°04'816.2
2017-Nov-15 16:00N 51°37' E 002°12'815.8
2017-Nov-15 15:30N 51°42' E 002°21'815.2
2017-Nov-15 14:59N 51°48' E 002°29'2514.2
2017-Nov-15 13:12N 52°03' E 003°03'514.7
2017-Nov-15 12:51N 52°03' E 003°11'514.7
2017-Nov-15 12:30N 52°04' E 003°19'714.4
2017-Nov-15 11:59N 52°04' E 003°32'714.4
2017-Nov-15 11:30N 52°04' E 003°43'713.7
2017-Nov-15 11:00N 52°02' E 003°54'5 9.0
2017-Nov-15 10:30N 52°00' E 004°00'3 6.8
2017-Nov-15 10:01N 51°58' E 004°04'0 0.7
2017-Nov-15 09:28N 51°58' E 004°03'0 0.0
2017-Nov-15 08:58N 51°58' E 004°03'0 0.0
2017-Nov-15 08:28N 51°58' E 004°03'0 0.0
2017-Nov-15 07:58N 51°58' E 004°03'0 0.0
2017-Nov-15 07:28N 51°58' E 004°03'0 0.0
2017-Nov-15 06:58N 51°58' E 004°03'0 0.0
2017-Nov-15 06:28N 51°58' E 004°03'0 0.0
2017-Nov-15 05:58N 51°58' E 004°03'0 0.0
2017-Nov-15 05:28N 51°58' E 004°03'0 0.0
2017-Nov-15 04:58N 51°58' E 004°03'0 0.0
2017-Nov-15 04:28N 51°58' E 004°03'0 0.0
2017-Nov-15 03:58N 51°58' E 004°03'0 0.0
2017-Nov-15 03:28N 51°58' E 004°03'0 0.0
2017-Nov-15 02:58N 51°58' E 004°03'0 0.0
2017-Nov-15 02:28N 51°58' E 004°03'0 0.0
2017-Nov-15 01:58N 51°58' E 004°03'0 0.0
2017-Nov-15 01:25N 51°58' E 004°03'0 0.0
2017-Nov-15 00:58N 51°58' E 004°03'0 0.0
2017-Nov-15 00:28N 51°58' E 004°03'0 0.0
2017-Nov-14 23:58N 51°58' E 004°03'0 0.0
2017-Nov-14 23:28N 51°58' E 004°03'0 0.0
2017-Nov-14 22:58N 51°58' E 004°03'0 0.0
2017-Nov-14 22:28N 51°58' E 004°03'0 0.0
2017-Nov-14 21:58N 51°58' E 004°03'0 0.0
2017-Nov-14 21:28N 51°58' E 004°03'0 0.0
2017-Nov-14 20:58N 51°58' E 004°03'0 0.0
2017-Nov-14 20:28N 51°58' E 004°03'0 0.0
2017-Nov-14 19:58N 51°58' E 004°03'0 0.0
2017-Nov-14 19:28N 51°58' E 004°03'0 0.0
2017-Nov-14 18:58N 51°58' E 004°03'0 0.0
2017-Nov-14 18:28N 51°58' E 004°03'0 0.0
2017-Nov-14 17:55N 51°58' E 004°03'0 0.0
2017-Nov-14 17:28N 51°58' E 004°03'0 0.0
2017-Nov-14 16:58N 51°58' E 004°03'0 0.0
2017-Nov-14 16:28N 51°58' E 004°03'0 0.0
2017-Nov-14 15:58N 51°58' E 004°03'0 0.0
2017-Nov-14 15:28N 51°58' E 004°03'0 0.0
2017-Nov-14 14:58N 51°58' E 004°03'0 0.0
2017-Nov-14 14:28N 51°58' E 004°03'0 0.0
2017-Nov-14 13:58N 51°58' E 004°03'0 0.0
2017-Nov-14 13:28N 51°58' E 004°03'0 0.0
2017-Nov-14 12:58N 51°58' E 004°03'0 0.0
2017-Nov-14 12:29N 51°58' E 004°03'0 0.0
2017-Nov-14 12:00N 51°58' E 004°03'1 1.5
2017-Nov-14 11:30N 51°58' E 004°04'2 4.7
2017-Nov-14 11:01N 51°60' E 004°02'612.9
2017-Nov-14 10:30N 52°00' E 003°51'4 8.6
2017-Nov-14 10:00N 52°02' E 003°45'5 9.5
2017-Nov-14 09:30N 52°06' E 003°44'1 2.1
2017-Nov-14 09:00N 52°08' E 003°44'0 0.0
2017-Nov-14 08:30N 52°08' E 003°44'0 0.1
2017-Nov-14 08:00N 52°08' E 003°44'0 0.0
2017-Nov-14 07:30N 52°08' E 003°44'0 0.0
2017-Nov-14 07:00N 52°08' E 003°44'0 0.1
2017-Nov-14 06:19N 52°07' E 003°44'0 0.0
2017-Nov-14 06:00N 52°07' E 003°44'0 0.0
2017-Nov-14 05:24N 52°07' E 003°44'0 0.0
2017-Nov-14 04:54N 52°07' E 003°44'0 0.0
2017-Nov-14 04:30N 52°07' E 003°44'0 0.0
2017-Nov-14 04:00N 52°07' E 003°44'0 0.0
2017-Nov-14 03:30N 52°07' E 003°44'0 0.0
2017-Nov-14 03:00N 52°07' E 003°44'0 0.0
2017-Nov-14 02:28N 52°07' E 003°44'0 0.0
2017-Nov-14 02:00N 52°08' E 003°44'0 0.0
2017-Nov-14 01:30N 52°08' E 003°44'0 0.0
2017-Nov-14 00:57N 52°08' E 003°44'0 0.1
2017-Nov-14 00:30N 52°08' E 003°44'0 0.0
2017-Nov-14 00:00N 52°08' E 003°44'0 0.0
2017-Nov-13 23:30N 52°08' E 003°44'0 0.4
2017-Nov-13 23:00N 52°08' E 003°43'1 2.0
2017-Nov-13 22:30N 52°09' E 003°44'4 7.4
2017-Nov-13 22:00N 52°12' E 003°46'167 7.8
2017-Nov-13 00:28N 53°58' E 007°23'8 9.1
2017-Nov-12 23:32N 53°59' E 007°37'0 9.3
2017-Nov-12 23:30N 53°59' E 007°37'6 7.4
2017-Nov-12 22:46N 53°55' E 007°43'3 9.2
2017-Nov-12 22:26N 53°53' E 007°47'613.0
2017-Nov-12 22:00N 53°52' E 007°57'816.4
2017-Nov-12 21:30N 53°48' E 008°09'917.4
2017-Nov-12 21:00N 53°42' E 008°20'815.9
2017-Nov-12 20:30N 53°37' E 008°30'1 2.3
2017-Nov-12 19:58N 53°36' E 008°31'0 0.0
2017-Nov-12 19:30N 53°36' E 008°31'0 0.0
2017-Nov-12 19:00N 53°36' E 008°31'0 0.0
2017-Nov-12 18:30N 53°36' E 008°31'0 0.0
2017-Nov-12 18:00N 53°36' E 008°31'0 0.0
2017-Nov-12 17:30N 53°36' E 008°31'0 0.0
2017-Nov-12 17:00N 53°36' E 008°31'0 0.0
2017-Nov-12 16:30N 53°36' E 008°31'0 0.0
2017-Nov-12 16:00N 53°36' E 008°31'0 0.0
2017-Nov-12 15:30N 53°36' E 008°31'0 0.0
2017-Nov-12 15:00N 53°36' E 008°31'0 0.0
2017-Nov-12 14:27N 53°36' E 008°31'0 0.0
2017-Nov-12 14:00N 53°36' E 008°31'0 0.0
2017-Nov-12 13:30N 53°36' E 008°31'0 0.0
2017-Nov-12 13:00N 53°36' E 008°31'0 0.0
2017-Nov-12 12:30N 53°36' E 008°31'0 0.0
2017-Nov-12 12:00N 53°36' E 008°31'0 0.0
2017-Nov-12 11:30N 53°36' E 008°31'0 0.0
2017-Nov-12 11:00N 53°36' E 008°31'0 0.0
2017-Nov-12 10:30N 53°36' E 008°31'0 0.0
2017-Nov-12 10:00N 53°36' E 008°31'0 0.0
2017-Nov-12 09:30N 53°36' E 008°31'0 0.0
2017-Nov-12 09:00N 53°36' E 008°31'0 0.0
2017-Nov-12 08:30N 53°36' E 008°31'0 0.0
2017-Nov-12 08:00N 53°36' E 008°31'0 0.0
2017-Nov-12 07:30N 53°36' E 008°31'0 0.0
2017-Nov-12 07:00N 53°36' E 008°31'0 0.0
2017-Nov-12 06:30N 53°36' E 008°31'0 0.0
2017-Nov-12 06:00N 53°36' E 008°31'0 0.0
2017-Nov-12 05:30N 53°36' E 008°31'0 0.0
2017-Nov-12 05:00N 53°36' E 008°31'0 0.0
2017-Nov-12 04:30N 53°36' E 008°31'0 0.0
2017-Nov-12 04:00N 53°36' E 008°31'0 0.0
2017-Nov-12 03:30N 53°36' E 008°31'0 0.0
2017-Nov-12 03:00N 53°36' E 008°31'0 0.0
2017-Nov-12 02:30N 53°36' E 008°31'0 0.0
2017-Nov-12 02:00N 53°36' E 008°31'0 0.0
2017-Nov-12 01:30N 53°36' E 008°31'0 0.0
2017-Nov-12 01:00N 53°36' E 008°31'0 0.0
2017-Nov-12 00:30N 53°36' E 008°31'0 0.0
2017-Nov-12 00:00N 53°36' E 008°31'0 0.0
2017-Nov-11 23:30N 53°36' E 008°31'0 0.1
2017-Nov-11 23:00N 53°36' E 008°31'1 2.8
2017-Nov-11 22:31N 53°37' E 008°30'611.2
2017-Nov-11 22:00N 53°40' E 008°22'713.6
2017-Nov-11 21:30N 53°45' E 008°13'714.0
2017-Nov-11 21:00N 53°50' E 008°05'814.9
2017-Nov-11 20:30N 53°52' E 007°53'4 8.0
2017-Nov-11 20:00N 53°52' E 007°46'3 6.6
2017-Nov-11 19:31N 53°53' E 007°41'4 7.9
2017-Nov-11 19:01N 53°54' E 007°34'712.1
2017-Nov-11 18:26N 53°53' E 007°23'713.4
2017-Nov-11 17:56N 53°51' E 007°12'6812.6
2017-Nov-11 12:32N 53°33' E 005°21'312.8
2017-Nov-11 12:19N 53°33' E 005°16'412.4
2017-Nov-11 11:59N 53°31' E 005°10'811.6
2017-Nov-11 11:17N 53°28' E 004°57'311.7
2017-Nov-11 11:00N 53°26' E 004°53'611.5
2017-Nov-11 10:29N 53°23' E 004°44'811.1
2017-Nov-11 09:47N 53°16' E 004°38'311.0
2017-Nov-11 09:30N 53°13' E 004°36'510.6
2017-Nov-11 09:00N 53°09' E 004°32'611.4
2017-Nov-11 08:30N 53°04' E 004°27'611.8
2017-Nov-11 08:00N 52°59' E 004°22'611.7
2017-Nov-11 07:31N 52°54' E 004°17'611.6
2017-Nov-11 07:00N 52°49' E 004°11'611.1
2017-Nov-11 06:31N 52°45' E 004°06'510.7
2017-Nov-11 06:00N 52°42' E 003°59'510.8
2017-Nov-11 05:30N 52°38' E 003°51'510.4
2017-Nov-11 05:00N 52°35' E 003°45'510.1
2017-Nov-11 04:30N 52°32' E 003°38'5 9.8
2017-Nov-11 04:00N 52°28' E 003°33'5 9.6
2017-Nov-11 03:31N 52°26' E 003°26'5 9.8
2017-Nov-11 02:59N 52°23' E 003°19'5 9.9
2017-Nov-11 02:29N 52°21' E 003°11'5 9.9
2017-Nov-11 02:00N 52°20' E 003°04'5 9.4
2017-Nov-11 01:30N 52°18' E 002°57'39 9.9
2017-Nov-10 21:33N 51°53' E 002°08'111.4
2017-Nov-10 21:30N 51°52' E 002°07'612.0
2017-Nov-10 21:01N 51°50' E 001°59'611.9
2017-Nov-10 20:31N 51°48' E 001°49'612.1
2017-Nov-10 20:00N 51°51' E 001°41'510.9
2017-Nov-10 19:30N 51°49' E 001°33'816.5
2017-Nov-10 19:00N 51°41' E 001°27'918.0
2017-Nov-10 18:30N 51°35' E 001°16'917.4
2017-Nov-10 18:00N 51°31' E 001°04'815.7
2017-Nov-10 17:30N 51°29' E 000°51'714.1
2017-Nov-10 17:00N 51°30' E 000°40'8 0.4
2017-Nov-09 22:44N 51°30' E 000°52'315.1
2017-Nov-09 22:31N 51°29' E 000°58'815.7
2017-Nov-09 22:00N 51°33' E 001°09'815.5
2017-Nov-09 21:30N 51°37' E 001°19'815.7
2017-Nov-09 21:01N 51°42' E 001°28'815.4
2017-Nov-09 20:30N 51°49' E 001°34'4 8.7
2017-Nov-09 20:01N 51°51' E 001°40'4 7.1
2017-Nov-09 19:30N 51°51' E 001°46'4 8.7
2017-Nov-09 19:00N 51°50' E 001°52'4 8.9
2017-Nov-09 18:31N 51°51' E 001°59'4 8.7
2017-Nov-09 18:01N 51°53' E 002°05'6 8.8
2017-Nov-09 17:21N 51°55' E 002°14'33 4.9
2017-Nov-09 10:31N 52°03' E 003°06'510.0
2017-Nov-09 10:00N 52°03' E 003°15'510.1
2017-Nov-09 09:29N 52°03' E 003°23'510.2
2017-Nov-09 08:59N 52°04' E 003°31'510.6
2017-Nov-09 08:30N 52°04' E 003°40'611.2
2017-Nov-09 08:00N 52°03' E 003°49'4 8.1
2017-Nov-09 07:30N 52°02' E 003°55'5 9.6
2017-Nov-09 07:00N 51°60' E 004°02'2 4.8
2017-Nov-09 06:30N 51°58' E 004°03'0 0.7
2017-Nov-09 06:00N 51°57' E 004°03'0 0.0
2017-Nov-09 05:30N 51°57' E 004°03'0 0.0
2017-Nov-09 05:00N 51°57' E 004°03'0 0.0
2017-Nov-09 04:30N 51°57' E 004°03'0 0.0
2017-Nov-09 04:00N 51°57' E 004°03'0 0.0
2017-Nov-09 03:30N 51°57' E 004°03'0 0.0
2017-Nov-09 03:00N 51°57' E 004°03'0 0.0
2017-Nov-09 02:30N 51°57' E 004°03'0 0.0
2017-Nov-09 02:00N 51°57' E 004°03'0 0.0
2017-Nov-09 01:30N 51°57' E 004°03'0 0.0
2017-Nov-09 01:00N 51°57' E 004°03'0 0.0
2017-Nov-09 00:30N 51°57' E 004°03'0 0.0
2017-Nov-09 00:00N 51°57' E 004°03'0 0.0
2017-Nov-08 23:30N 51°57' E 004°03'0 0.0
2017-Nov-08 23:00N 51°57' E 004°03'0 0.0
2017-Nov-08 22:30N 51°57' E 004°03'0 0.0
2017-Nov-08 22:00N 51°57' E 004°03'0 0.0
2017-Nov-08 21:30N 51°57' E 004°03'0 0.0
2017-Nov-08 21:00N 51°57' E 004°03'0 0.0
2017-Nov-08 20:30N 51°57' E 004°03'0 0.0
2017-Nov-08 20:00N 51°57' E 004°03'0 0.0
2017-Nov-08 19:30N 51°57' E 004°03'0 0.0
2017-Nov-08 19:00N 51°57' E 004°03'0 0.2
2017-Nov-08 18:31N 51°58' E 004°03'1 2.9
2017-Nov-08 18:01N 51°58' E 004°05'4 7.3
2017-Nov-08 17:31N 51°60' E 004°00'611.0
2017-Nov-08 17:00N 52°00' E 003°51'510.5
2017-Nov-08 16:31N 51°59' E 003°43'1121.1
2017-Nov-08 16:00N 51°56' E 003°27'1522.0
2017-Nov-08 15:18N 51°51' E 003°03'2621.6
2017-Nov-08 14:06N 51°38' E 002°27'621.7
2017-Nov-08 13:50N 51°34' E 002°20'721.7
2017-Nov-08 13:31N 51°29' E 002°12'1121.7
2017-Nov-08 13:00N 51°21' E 002°00'1121.4
2017-Nov-08 12:30N 51°13' E 001°49'1020.7
2017-Nov-08 12:00N 51°05' E 001°39'1020.2
2017-Nov-08 11:30N 50°57' E 001°29'1019.6
2017-Nov-08 11:00N 50°48' E 001°23'1019.6
2017-Nov-08 10:30N 50°39' E 001°15'1020.3
2017-Nov-08 10:00N 50°32' E 001°04'1020.0
2017-Nov-08 09:30N 50°28' E 000°50'1220.4
2017-Nov-08 08:56N 50°25' E 000°32'920.0
2017-Nov-08 08:30N 50°23' E 000°19'1019.7
2017-Nov-08 08:00N 50°21' E 000°04'1019.4
2017-Nov-08 07:30N 50°19' W 000°11'918.9
2017-Nov-08 07:00N 50°16' W 000°25'918.4
2017-Nov-08 06:30N 50°14' W 000°39'918.0
2017-Nov-08 06:00N 50°12' W 000°53'917.7
2017-Nov-08 05:30N 50°09' W 001°06'917.2
2017-Nov-08 05:00N 50°07' W 001°19'816.7
2017-Nov-08 04:30N 50°04' W 001°31'816.3
2017-Nov-08 04:01N 50°01' W 001°43'816.3
2017-Nov-08 03:30N 49°59' W 001°55'816.5
2017-Nov-08 03:00N 49°57' W 002°08'917.7
2017-Nov-08 02:29N 49°56' W 002°22'918.5
2017-Nov-08 02:00N 49°53' W 002°36'919.1
2017-Nov-08 01:31N 49°49' W 002°49'1019.2
2017-Nov-08 01:00N 49°44' W 003°02'1019.4
2017-Nov-08 00:31N 49°39' W 003°14'  
Track history (hours):
 
Tides and Currents Weather Stations Pressure Air Temp Water Temp Dewpoint Dewpoint Depression Visibility Wind Speed Wind Dir Waves Ship Positions

Maersk Lanco

Last reported at 2017-Nov-17 23:00 UTC. Time now 2017-Nov-17 23:14 UTC.
Position N 39°43' W 010°06'.

Length 300 m; draft 12 m.

Type: Ship. MMSI: 477182700.

Date/timePositionNaut miles runAvg speedWind from/ knotsBaromVisibWave heightAir tempDewpointWater temp
2017-Nov-17 23:00N 39°43' W 010°06'917.8
2017-Nov-17 22:30N 39°52' W 010°06'918.3
2017-Nov-17 22:01N 40°01' W 010°07'918.3
2017-Nov-17 21:30N 40°10' W 010°07'918.2
2017-Nov-17 21:00N 40°20' W 010°07'918.7
2017-Nov-17 20:30N 40°29' W 010°08'1018.8
2017-Nov-17 20:00N 40°38' W 010°08'918.9
2017-Nov-17 19:30N 40°48' W 010°08'2118.3
2017-Nov-17 18:20N 41°09' W 010°09'618.4
2017-Nov-17 18:00N 41°15' W 010°09'4918.1
2017-Nov-17 15:17N 42°04' W 010°08'518.2
2017-Nov-17 15:00N 42°09' W 010°09'24817.7
2017-Nov-17 01:00N 46°00' W 008°00'8218.6 060 / 151025.910.8 13.0 6.818.0
2017-Nov-16 20:34N 47°14' W 007°08'418.1
2017-Nov-16 20:20N 47°18' W 007°05'1118.5
2017-Nov-16 19:45N 47°27' W 006°57'519.0
2017-Nov-16 19:30N 47°32' W 006°54'1019.7
2017-Nov-16 19:00N 47°40' W 006°47'1519.6
2017-Nov-16 18:15N 47°53' W 006°36'619.3
2017-Nov-16 17:56N 47°58' W 006°32'819.1
2017-Nov-16 17:30N 48°05' W 006°26'1018.7
2017-Nov-16 16:59N 48°14' W 006°18'1418.3
2017-Nov-16 16:13N 48°26' W 006°08'418.2
2017-Nov-16 15:59N 48°30' W 006°05'1017.4
2017-Nov-16 15:25N 48°39' W 005°58'816.9
2017-Nov-16 14:58N 48°46' W 005°53'816.3
2017-Nov-16 14:29N 48°52' W 005°47'1515.8
2017-Nov-16 13:32N 49°02' W 005°29'715.6
2017-Nov-16 13:07N 49°05' W 005°21'315.8
2017-Nov-16 12:57N 49°06' W 005°17'816.0
2017-Nov-16 12:28N 49°10' W 005°07'816.4
2017-Nov-16 11:58N 49°14' W 004°56'1016.9
2017-Nov-16 11:21N 49°20' W 004°42'617.4
2017-Nov-16 11:00N 49°23' W 004°35'917.1
2017-Nov-16 10:27N 49°28' W 004°22'816.5
2017-Nov-16 10:00N 49°32' W 004°12'816.7
2017-Nov-16 09:30N 49°36' W 004°01'816.6
2017-Nov-16 09:00N 49°40' W 003°50'916.0
2017-Nov-16 08:26N 49°45' W 003°38'715.6
2017-Nov-16 08:00N 49°48' W 003°29'815.2
2017-Nov-16 07:30N 49°52' W 003°19'714.5
2017-Nov-16 07:00N 49°55' W 003°09'713.9
2017-Nov-16 06:30N 49°58' W 002°59'713.5
2017-Nov-16 06:00N 50°01' W 002°49'713.3
2017-Nov-16 05:30N 50°03' W 002°40'713.2
2017-Nov-16 05:00N 50°05' W 002°30'1313.3
2017-Nov-16 04:03N 50°08' W 002°11'114.1
2017-Nov-16 04:00N 50°08' W 002°10'714.2
2017-Nov-16 03:30N 50°10' W 001°59'815.1
2017-Nov-16 03:01N 50°12' W 001°48'816.2
2017-Nov-16 02:30N 50°14' W 001°35'816.8
2017-Nov-16 02:00N 50°16' W 001°23'917.2
2017-Nov-16 01:30N 50°18' W 001°10'918.2
2017-Nov-16 01:00N 50°20' W 000°56'1217.9
2017-Nov-16 00:20N 50°24' W 000°38'617.6
2017-Nov-16 00:00N 50°25' W 000°29'817.1
2017-Nov-15 23:30N 50°28' W 000°16'816.7
2017-Nov-15 23:00N 50°30' W 000°04'816.4
2017-Nov-15 22:30N 50°32' E 000°09'816.0
2017-Nov-15 22:00N 50°34' E 000°21'815.5
2017-Nov-15 21:30N 50°36' E 000°33'715.0
2017-Nov-15 21:00N 50°39' E 000°43'714.7
2017-Nov-15 20:30N 50°43' E 000°53'714.6
2017-Nov-15 20:00N 50°47' E 001°03'815.0
2017-Nov-15 19:30N 50°51' E 001°14'815.3
2017-Nov-15 19:00N 50°57' E 001°21'917.1
2017-Nov-15 18:30N 51°03' E 001°30'918.0
2017-Nov-15 18:00N 51°09' E 001°40'918.0
2017-Nov-15 17:30N 51°16' E 001°49'917.3
2017-Nov-15 17:00N 51°24' E 001°55'816.7
2017-Nov-15 16:30N 51°31' E 002°04'816.2
2017-Nov-15 16:00N 51°37' E 002°12'815.8
2017-Nov-15 15:30N 51°42' E 002°21'815.2
2017-Nov-15 14:59N 51°48' E 002°29'2514.2
2017-Nov-15 13:12N 52°03' E 003°03'514.7
2017-Nov-15 12:51N 52°03' E 003°11'514.7
2017-Nov-15 12:30N 52°04' E 003°19'714.4
2017-Nov-15 11:59N 52°04' E 003°32'714.4
2017-Nov-15 11:30N 52°04' E 003°43'713.7
2017-Nov-15 11:00N 52°02' E 003°54'5 9.0
2017-Nov-15 10:30N 52°00' E 004°00'3 6.8
2017-Nov-15 10:01N 51°58' E 004°04'0 0.7
2017-Nov-15 09:28N 51°58' E 004°03'0 0.0
2017-Nov-15 08:58N 51°58' E 004°03'0 0.0
2017-Nov-15 08:28N 51°58' E 004°03'0 0.0
2017-Nov-15 07:58N 51°58' E 004°03'0 0.0
2017-Nov-15 07:28N 51°58' E 004°03'0 0.0
2017-Nov-15 06:58N 51°58' E 004°03'0 0.0
2017-Nov-15 06:28N 51°58' E 004°03'0 0.0
2017-Nov-15 05:58N 51°58' E 004°03'0 0.0
2017-Nov-15 05:28N 51°58' E 004°03'0 0.0
2017-Nov-15 04:58N 51°58' E 004°03'0 0.0
2017-Nov-15 04:28N 51°58' E 004°03'0 0.0
2017-Nov-15 03:58N 51°58' E 004°03'0 0.0
2017-Nov-15 03:28N 51°58' E 004°03'0 0.0
2017-Nov-15 02:58N 51°58' E 004°03'0 0.0
2017-Nov-15 02:28N 51°58' E 004°03'0 0.0
2017-Nov-15 01:58N 51°58' E 004°03'0 0.0
2017-Nov-15 01:25N 51°58' E 004°03'0 0.0
2017-Nov-15 00:58N 51°58' E 004°03'0 0.0
2017-Nov-15 00:28N 51°58' E 004°03'0 0.0
2017-Nov-14 23:58N 51°58' E 004°03'0 0.0
2017-Nov-14 23:28N 51°58' E 004°03'0 0.0
2017-Nov-14 22:58N 51°58' E 004°03'0 0.0
2017-Nov-14 22:28N 51°58' E 004°03'0 0.0
2017-Nov-14 21:58N 51°58' E 004°03'0 0.0
2017-Nov-14 21:28N 51°58' E 004°03'0 0.0
2017-Nov-14 20:58N 51°58' E 004°03'0 0.0
2017-Nov-14 20:28N 51°58' E 004°03'0 0.0
2017-Nov-14 19:58N 51°58' E 004°03'0 0.0
2017-Nov-14 19:28N 51°58' E 004°03'0 0.0
2017-Nov-14 18:58N 51°58' E 004°03'0 0.0
2017-Nov-14 18:28N 51°58' E 004°03'0 0.0
2017-Nov-14 17:55N 51°58' E 004°03'0 0.0
2017-Nov-14 17:28N 51°58' E 004°03'0 0.0
2017-Nov-14 16:58N 51°58' E 004°03'0 0.0
2017-Nov-14 16:28N 51°58' E 004°03'0 0.0
2017-Nov-14 15:58N 51°58' E 004°03'0 0.0
2017-Nov-14 15:28N 51°58' E 004°03'0 0.0
2017-Nov-14 14:58N 51°58' E 004°03'0 0.0
2017-Nov-14 14:28N 51°58' E 004°03'0 0.0
2017-Nov-14 13:58N 51°58' E 004°03'0 0.0
2017-Nov-14 13:28N 51°58' E 004°03'0 0.0
2017-Nov-14 12:58N 51°58' E 004°03'0 0.0
2017-Nov-14 12:29N 51°58' E 004°03'0 0.0
2017-Nov-14 12:00N 51°58' E 004°03'1 1.5
2017-Nov-14 11:30N 51°58' E 004°04'2 4.7
2017-Nov-14 11:01N 51°60' E 004°02'612.9
2017-Nov-14 10:30N 52°00' E 003°51'4 8.6
2017-Nov-14 10:00N 52°02' E 003°45'5 9.5
2017-Nov-14 09:30N 52°06' E 003°44'1 2.1
2017-Nov-14 09:00N 52°08' E 003°44'0 0.0
2017-Nov-14 08:30N 52°08' E 003°44'0 0.1
2017-Nov-14 08:00N 52°08' E 003°44'0 0.0
2017-Nov-14 07:30N 52°08' E 003°44'0 0.0
2017-Nov-14 07:00N 52°08' E 003°44'0 0.1
2017-Nov-14 06:19N 52°07' E 003°44'0 0.0
2017-Nov-14 06:00N 52°07' E 003°44'0 0.0
2017-Nov-14 05:24N 52°07' E 003°44'0 0.0
2017-Nov-14 04:54N 52°07' E 003°44'0 0.0
2017-Nov-14 04:30N 52°07' E 003°44'0 0.0
2017-Nov-14 04:00N 52°07' E 003°44'0 0.0
2017-Nov-14 03:30N 52°07' E 003°44'0 0.0
2017-Nov-14 03:00N 52°07' E 003°44'0 0.0
2017-Nov-14 02:28N 52°07' E 003°44'0 0.0
2017-Nov-14 02:00N 52°08' E 003°44'0 0.0
2017-Nov-14 01:30N 52°08' E 003°44'0 0.0
2017-Nov-14 00:57N 52°08' E 003°44'0 0.1
2017-Nov-14 00:30N 52°08' E 003°44'0 0.0
2017-Nov-14 00:00N 52°08' E 003°44'0 0.0
2017-Nov-13 23:30N 52°08' E 003°44'0 0.4
2017-Nov-13 23:00N 52°08' E 003°43'1 2.0
2017-Nov-13 22:30N 52°09' E 003°44'4 7.4
2017-Nov-13 22:00N 52°12' E 003°46'167 7.8
2017-Nov-13 00:28N 53°58' E 007°23'8 9.1
2017-Nov-12 23:32N 53°59' E 007°37'0 9.3
2017-Nov-12 23:30N 53°59' E 007°37'6 7.4
2017-Nov-12 22:46N 53°55' E 007°43'3 9.2
2017-Nov-12 22:26N 53°53' E 007°47'613.0
2017-Nov-12 22:00N 53°52' E 007°57'816.4
2017-Nov-12 21:30N 53°48' E 008°09'917.4
2017-Nov-12 21:00N 53°42' E 008°20'815.9
2017-Nov-12 20:30N 53°37' E 008°30'1 2.3
2017-Nov-12 19:58N 53°36' E 008°31'0 0.0
2017-Nov-12 19:30N 53°36' E 008°31'0 0.0
2017-Nov-12 19:00N 53°36' E 008°31'0 0.0
2017-Nov-12 18:30N 53°36' E 008°31'0 0.0
2017-Nov-12 18:00N 53°36' E 008°31'0 0.0
2017-Nov-12 17:30N 53°36' E 008°31'0 0.0
2017-Nov-12 17:00N 53°36' E 008°31'0 0.0
2017-Nov-12 16:30N 53°36' E 008°31'0 0.0
2017-Nov-12 16:00N 53°36' E 008°31'0 0.0
2017-Nov-12 15:30N 53°36' E 008°31'0 0.0
2017-Nov-12 15:00N 53°36' E 008°31'0 0.0
2017-Nov-12 14:27N 53°36' E 008°31'0 0.0
2017-Nov-12 14:00N 53°36' E 008°31'0 0.0
2017-Nov-12 13:30N 53°36' E 008°31'0 0.0
2017-Nov-12 13:00N 53°36' E 008°31'0 0.0
2017-Nov-12 12:30N 53°36' E 008°31'0 0.0
2017-Nov-12 12:00N 53°36' E 008°31'0 0.0
2017-Nov-12 11:30N 53°36' E 008°31'0 0.0
2017-Nov-12 11:00N 53°36' E 008°31'0 0.0
2017-Nov-12 10:30N 53°36' E 008°31'0 0.0
2017-Nov-12 10:00N 53°36' E 008°31'0 0.0
2017-Nov-12 09:30N 53°36' E 008°31'0 0.0
2017-Nov-12 09:00N 53°36' E 008°31'0 0.0
2017-Nov-12 08:30N 53°36' E 008°31'0 0.0
2017-Nov-12 08:00N 53°36' E 008°31'0 0.0
2017-Nov-12 07:30N 53°36' E 008°31'0 0.0
2017-Nov-12 07:00N 53°36' E 008°31'0 0.0
2017-Nov-12 06:30N 53°36' E 008°31'0 0.0
2017-Nov-12 06:00N 53°36' E 008°31'0 0.0
2017-Nov-12 05:30N 53°36' E 008°31'0 0.0
2017-Nov-12 05:00N 53°36' E 008°31'0 0.0
2017-Nov-12 04:30N 53°36' E 008°31'0 0.0
2017-Nov-12 04:00N 53°36' E 008°31'0 0.0
2017-Nov-12 03:30N 53°36' E 008°31'0 0.0
2017-Nov-12 03:00N 53°36' E 008°31'0 0.0
2017-Nov-12 02:30N 53°36' E 008°31'0 0.0
2017-Nov-12 02:00N 53°36' E 008°31'0 0.0
2017-Nov-12 01:30N 53°36' E 008°31'0 0.0
2017-Nov-12 01:00N 53°36' E 008°31'0 0.0
2017-Nov-12 00:30N 53°36' E 008°31'0 0.0
2017-Nov-12 00:00N 53°36' E 008°31'0 0.0
2017-Nov-11 23:30N 53°36' E 008°31'0 0.1
2017-Nov-11 23:00N 53°36' E 008°31'1 2.8
2017-Nov-11 22:31N 53°37' E 008°30'611.2
2017-Nov-11 22:00N 53°40' E 008°22'713.6
2017-Nov-11 21:30N 53°45' E 008°13'714.0
2017-Nov-11 21:00N 53°50' E 008°05'814.9
2017-Nov-11 20:30N 53°52' E 007°53'4 8.0
2017-Nov-11 20:00N 53°52' E 007°46'3 6.6
2017-Nov-11 19:31N 53°53' E 007°41'4 7.9
2017-Nov-11 19:01N 53°54' E 007°34'712.1
2017-Nov-11 18:26N 53°53' E 007°23'713.4
2017-Nov-11 17:56N 53°51' E 007°12'6812.6
2017-Nov-11 12:32N 53°33' E 005°21'312.8
2017-Nov-11 12:19N 53°33' E 005°16'412.4
2017-Nov-11 11:59N 53°31' E 005°10'811.6
2017-Nov-11 11:17N 53°28' E 004°57'311.7
2017-Nov-11 11:00N 53°26' E 004°53'611.5
2017-Nov-11 10:29N 53°23' E 004°44'811.1
2017-Nov-11 09:47N 53°16' E 004°38'311.0
2017-Nov-11 09:30N 53°13' E 004°36'510.6
2017-Nov-11 09:00N 53°09' E 004°32'611.4
2017-Nov-11 08:30N 53°04' E 004°27'611.8
2017-Nov-11 08:00N 52°59' E 004°22'611.7
2017-Nov-11 07:31N 52°54' E 004°17'611.6
2017-Nov-11 07:00N 52°49' E 004°11'611.1
2017-Nov-11 06:31N 52°45' E 004°06'510.7
2017-Nov-11 06:00N 52°42' E 003°59'510.8
2017-Nov-11 05:30N 52°38' E 003°51'510.4
2017-Nov-11 05:00N 52°35' E 003°45'510.1
2017-Nov-11 04:30N 52°32' E 003°38'5 9.8
2017-Nov-11 04:00N 52°28' E 003°33'5 9.6
2017-Nov-11 03:31N 52°26' E 003°26'5 9.8
2017-Nov-11 02:59N 52°23' E 003°19'5 9.9
2017-Nov-11 02:29N 52°21' E 003°11'5 9.9
2017-Nov-11 02:00N 52°20' E 003°04'5 9.4
2017-Nov-11 01:30N 52°18' E 002°57'39 9.9
2017-Nov-10 21:33N 51°53' E 002°08'111.4
2017-Nov-10 21:30N 51°52' E 002°07'612.0
2017-Nov-10 21:01N 51°50' E 001°59'611.9
2017-Nov-10 20:31N 51°48' E 001°49'612.1
2017-Nov-10 20:00N 51°51' E 001°41'510.9
2017-Nov-10 19:30N 51°49' E 001°33'816.5
2017-Nov-10 19:00N 51°41' E 001°27'918.0
2017-Nov-10 18:30N 51°35' E 001°16'917.4
2017-Nov-10 18:00N 51°31' E 001°04'815.7
2017-Nov-10 17:30N 51°29' E 000°51'714.1
2017-Nov-10 17:00N 51°30' E 000°40'8 0.4
2017-Nov-09 22:44N 51°30' E 000°52'315.1
2017-Nov-09 22:31N 51°29' E 000°58'815.7
2017-Nov-09 22:00N 51°33' E 001°09'815.5
2017-Nov-09 21:30N 51°37' E 001°19'815.7
2017-Nov-09 21:01N 51°42' E 001°28'815.4
2017-Nov-09 20:30N 51°49' E 001°34'4 8.7
2017-Nov-09 20:01N 51°51' E 001°40'4 7.1
2017-Nov-09 19:30N 51°51' E 001°46'4 8.7
2017-Nov-09 19:00N 51°50' E 001°52'4 8.9
2017-Nov-09 18:31N 51°51' E 001°59'4 8.7
2017-Nov-09 18:01N 51°53' E 002°05'6 8.8
2017-Nov-09 17:21N 51°55' E 002°14'33 4.9
2017-Nov-09 10:31N 52°03' E 003°06'510.0
2017-Nov-09 10:00N 52°03' E 003°15'510.1
2017-Nov-09 09:29N 52°03' E 003°23'510.2
2017-Nov-09 08:59N 52°04' E 003°31'510.6
2017-Nov-09 08:30N 52°04' E 003°40'611.2
2017-Nov-09 08:00N 52°03' E 003°49'4 8.1
2017-Nov-09 07:30N 52°02' E 003°55'5 9.6
2017-Nov-09 07:00N 51°60' E 004°02'2 4.8
2017-Nov-09 06:30N 51°58' E 004°03'0 0.7
2017-Nov-09 06:00N 51°57' E 004°03'0 0.0
2017-Nov-09 05:30N 51°57' E 004°03'0 0.0
2017-Nov-09 05:00N 51°57' E 004°03'0 0.0
2017-Nov-09 04:30N 51°57' E 004°03'0 0.0
2017-Nov-09 04:00N 51°57' E 004°03'0 0.0
2017-Nov-09 03:30N 51°57' E 004°03'0 0.0
2017-Nov-09 03:00N 51°57' E 004°03'0 0.0
2017-Nov-09 02:30N 51°57' E 004°03'0 0.0
2017-Nov-09 02:00N 51°57' E 004°03'0 0.0
2017-Nov-09 01:30N 51°57' E 004°03'0 0.0
2017-Nov-09 01:00N 51°57' E 004°03'0 0.0
2017-Nov-09 00:30N 51°57' E 004°03'0 0.0
2017-Nov-09 00:00N 51°57' E 004°03'0 0.0
2017-Nov-08 23:30N 51°57' E 004°03'0 0.0
2017-Nov-08 23:00N 51°57' E 004°03'0 0.0
2017-Nov-08 22:30N 51°57' E 004°03'0 0.0
2017-Nov-08 22:00N 51°57' E 004°03'0 0.0
2017-Nov-08 21:30N 51°57' E 004°03'0 0.0
2017-Nov-08 21:00N 51°57' E 004°03'0 0.0
2017-Nov-08 20:30N 51°57' E 004°03'0 0.0
2017-Nov-08 20:00N 51°57' E 004°03'0 0.0
2017-Nov-08 19:30N 51°57' E 004°03'0 0.0
2017-Nov-08 19:00N 51°57' E 004°03'0 0.2
2017-Nov-08 18:31N 51°58' E 004°03'1 2.9
2017-Nov-08 18:01N 51°58' E 004°05'4 7.3
2017-Nov-08 17:31N 51°60' E 004°00'611.0
2017-Nov-08 17:00N 52°00' E 003°51'510.5
2017-Nov-08 16:31N 51°59' E 003°43'1121.1
2017-Nov-08 16:00N 51°56' E 003°27'1522.0
2017-Nov-08 15:18N 51°51' E 003°03'2621.6
2017-Nov-08 14:06N 51°38' E 002°27'621.7
2017-Nov-08 13:50N 51°34' E 002°20'721.7
2017-Nov-08 13:31N 51°29' E 002°12'1121.7
2017-Nov-08 13:00N 51°21' E 002°00'1121.4
2017-Nov-08 12:30N 51°13' E 001°49'1020.7
2017-Nov-08 12:00N 51°05' E 001°39'1020.2
2017-Nov-08 11:30N 50°57' E 001°29'1019.6
2017-Nov-08 11:00N 50°48' E 001°23'1019.6
2017-Nov-08 10:30N 50°39' E 001°15'1020.3
2017-Nov-08 10:00N 50°32' E 001°04'1020.0
2017-Nov-08 09:30N 50°28' E 000°50'1220.4
2017-Nov-08 08:56N 50°25' E 000°32'920.0
2017-Nov-08 08:30N 50°23' E 000°19'1019.7
2017-Nov-08 08:00N 50°21' E 000°04'1019.4
2017-Nov-08 07:30N 50°19' W 000°11'918.9
2017-Nov-08 07:00N 50°16' W 000°25'918.4
2017-Nov-08 06:30N 50°14' W 000°39'918.0
2017-Nov-08 06:00N 50°12' W 000°53'917.7
2017-Nov-08 05:30N 50°09' W 001°06'917.2
2017-Nov-08 05:00N 50°07' W 001°19'816.7
2017-Nov-08 04:30N 50°04' W 001°31'816.3
2017-Nov-08 04:01N 50°01' W 001°43'816.3
2017-Nov-08 03:30N 49°59' W 001°55'816.5
2017-Nov-08 03:00N 49°57' W 002°08'917.7
2017-Nov-08 02:29N 49°56' W 002°22'918.5
2017-Nov-08 02:00N 49°53' W 002°36'919.1
2017-Nov-08 01:31N 49°49' W 002°49'1019.2
2017-Nov-08 01:00N 49°44' W 003°02'1019.4
2017-Nov-08 00:31N 49°39' W 003°14'  

Dump ship's entire track history